createdAt,value
2023-03-26T00:00:00.115Z, 0
2023-03-26T00:02:00.130Z, 0
2023-03-26T00:04:00.088Z, 0
2023-03-26T00:06:00.186Z, 0
2023-03-26T00:08:00.058Z, 0
2023-03-26T00:10:00.063Z, 0
2023-03-26T00:12:00.078Z, 0
2023-03-26T00:14:00.069Z, 0
2023-03-26T00:16:00.070Z, 0
2023-03-26T00:18:00.112Z, 0
2023-03-26T00:20:00.055Z, 0
2023-03-26T00:22:00.051Z, 0
2023-03-26T00:24:00.094Z, 0
2023-03-26T00:26:00.117Z, 0
2023-03-26T00:28:00.105Z, 0
2023-03-26T00:30:00.140Z, 0
2023-03-26T00:32:00.156Z, 0
2023-03-26T00:34:00.140Z, 0
2023-03-26T00:36:01.352Z, 0
2023-03-26T00:38:00.130Z, 0
2023-03-26T00:40:01.066Z, 0
2023-03-26T00:42:00.127Z, 0
2023-03-26T00:44:00.204Z, 0
2023-03-26T00:46:00.191Z, 0
2023-03-26T00:48:01.750Z, 0
2023-03-26T00:50:00.163Z, 0
2023-03-26T00:52:00.143Z, 0
2023-03-26T00:54:00.153Z, 0
2023-03-26T00:56:00.078Z, 0
2023-03-26T00:58:00.060Z, 0
2023-03-26T01:00:00.069Z, 0
2023-03-26T01:02:00.108Z, 0
2023-03-26T01:06:00.097Z, 0
2023-03-26T01:08:00.071Z, 0
2023-03-26T01:10:00.069Z, 0
2023-03-26T01:12:00.060Z, 0
2023-03-26T01:14:00.045Z, 0
2023-03-26T01:16:00.112Z, 0
2023-03-26T01:18:00.094Z, 0
2023-03-26T01:20:00.068Z, 0
2023-03-26T01:22:00.071Z, 0
2023-03-26T01:24:00.083Z, 0
2023-03-26T01:26:00.102Z, 0
2023-03-26T01:28:00.105Z, 0
2023-03-26T01:30:00.145Z, 0
2023-03-26T01:32:00.111Z, 0
2023-03-26T01:34:00.123Z, 0
2023-03-26T01:36:00.188Z, 0
2023-03-26T01:38:00.153Z, 0
2023-03-26T01:40:00.173Z, 0
2023-03-26T01:42:00.119Z, 0
2023-03-26T01:44:00.128Z, 0
2023-03-26T01:46:00.127Z, 0
2023-03-26T01:48:00.230Z, 0
2023-03-26T01:50:00.127Z, 0
2023-03-26T01:52:00.125Z, 0
2023-03-26T01:54:00.141Z, 0
2023-03-26T01:56:00.110Z, 0
2023-03-26T01:58:00.087Z, 0
2023-03-26T02:00:00.132Z, 0
2023-03-26T02:02:00.191Z, 0
2023-03-26T02:04:00.137Z, 0
2023-03-26T02:06:00.111Z, 0
2023-03-26T02:08:00.067Z, 0
2023-03-26T02:10:00.090Z, 0
2023-03-26T02:12:00.097Z, 0
2023-03-26T02:14:00.109Z, 0
2023-03-26T02:16:00.117Z, 0
2023-03-26T02:18:00.203Z, 0
2023-03-26T02:20:00.073Z, 0
2023-03-26T02:22:00.108Z, 0
2023-03-26T02:24:00.080Z, 0
2023-03-26T02:26:00.126Z, 0
2023-03-26T02:28:00.107Z, 0
2023-03-26T02:30:00.151Z, 0
2023-03-26T02:32:00.185Z, 0
2023-03-26T02:34:00.150Z, 0
2023-03-26T02:36:00.252Z, 0
2023-03-26T02:38:00.112Z, 0
2023-03-26T02:40:00.154Z, 0
2023-03-26T02:42:00.136Z, 0
2023-03-26T02:44:00.106Z, 0
2023-03-26T02:46:00.301Z, 0
2023-03-26T02:48:00.198Z, 0
2023-03-26T02:50:00.159Z, 0
2023-03-26T02:52:00.149Z, 0
2023-03-26T02:54:00.138Z, 0
2023-03-26T02:56:00.049Z, 0
2023-03-26T02:58:00.047Z, 0
2023-03-26T03:00:00.081Z, 0
2023-03-26T03:02:00.032Z, 0
2023-03-26T03:04:00.105Z, 0
2023-03-26T03:06:00.061Z, 0
2023-03-26T03:08:00.053Z, 0
2023-03-26T03:10:00.086Z, 0
2023-03-26T03:12:00.068Z, 0
2023-03-26T03:14:00.093Z, 0
2023-03-26T03:16:00.036Z, 0
2023-03-26T03:18:00.142Z, 0
2023-03-26T03:20:00.119Z, 0
2023-03-26T03:22:00.043Z, 0
2023-03-26T03:24:00.588Z, 0
2023-03-26T03:26:00.122Z, 0
2023-03-26T03:28:00.115Z, 0
2023-03-26T03:30:00.185Z, 0
2023-03-26T03:32:00.221Z, 0
2023-03-26T03:34:00.129Z, 0
2023-03-26T03:36:00.161Z, 0
2023-03-26T03:38:00.135Z, 0
2023-03-26T03:40:00.170Z, 0
2023-03-26T03:42:00.136Z, 0
2023-03-26T03:44:00.108Z, 0
2023-03-26T03:46:00.139Z, 0
2023-03-26T03:48:00.213Z, 0
2023-03-26T03:50:00.253Z, 0
2023-03-26T03:52:00.125Z, 0
2023-03-26T03:54:00.131Z, 0
2023-03-26T03:56:00.104Z, 0
2023-03-26T03:58:00.087Z, 0
2023-03-26T04:00:00.133Z, 0
2023-03-26T04:02:00.082Z, 0
2023-03-26T04:04:00.233Z, 0
2023-03-26T04:06:00.086Z, 0
2023-03-26T04:08:00.087Z, 0
2023-03-26T04:10:00.139Z, 0
2023-03-26T04:12:00.080Z, 0
2023-03-26T04:14:00.081Z, 0
2023-03-26T04:16:00.105Z, 0
2023-03-26T04:18:00.172Z, 0
2023-03-26T04:20:00.078Z, 0
2023-03-26T04:22:00.050Z, 0
2023-03-26T04:24:00.046Z, 0
2023-03-26T04:26:00.121Z, 0
2023-03-26T04:28:00.110Z, 0
2023-03-26T04:30:00.154Z, 0
2023-03-26T04:32:00.141Z, 0
2023-03-26T04:34:00.144Z, 0
2023-03-26T04:36:00.180Z, 0
2023-03-26T04:38:00.118Z, 0
2023-03-26T04:40:00.141Z, 0
2023-03-26T04:42:00.114Z, 0
2023-03-26T04:44:00.104Z, 0
2023-03-26T04:46:00.108Z, 0
2023-03-26T04:48:00.200Z, 0
2023-03-26T04:50:00.138Z, 0
2023-03-26T04:52:00.110Z, 1
2023-03-26T04:54:00.126Z, 3
2023-03-26T04:56:00.121Z, 5
2023-03-26T04:58:00.123Z, 8
2023-03-26T05:00:00.118Z, 11
2023-03-26T05:02:00.140Z, 17
2023-03-26T05:04:00.118Z, 24
2023-03-26T05:06:00.102Z, 32
2023-03-26T05:08:00.100Z, 40
2023-03-26T05:10:00.084Z, 49
2023-03-26T05:12:00.050Z, 60
2023-03-26T05:14:00.082Z, 70
2023-03-26T05:16:00.104Z, 75
2023-03-26T05:18:00.145Z, 94
2023-03-26T05:20:00.064Z, 129
2023-03-26T05:22:00.061Z, 160
2023-03-26T05:24:00.053Z, 188
2023-03-26T05:26:00.136Z, 213
2023-03-26T05:28:00.094Z, 242
2023-03-26T05:30:00.099Z, 266
2023-03-26T05:32:00.110Z, 270
2023-03-26T05:34:00.214Z, 251
2023-03-26T05:36:00.191Z, 233
2023-03-26T05:38:00.117Z, 235
2023-03-26T05:40:00.143Z, 250
2023-03-26T05:42:00.129Z, 283
2023-03-26T05:44:00.130Z, 325
2023-03-26T05:46:00.187Z, 350
2023-03-26T05:48:00.181Z, 359
2023-03-26T05:50:00.175Z, 391
2023-03-26T05:52:00.122Z, 460
2023-03-26T05:54:00.137Z, 545
2023-03-26T05:56:00.084Z, 626
2023-03-26T05:58:00.051Z, 741
2023-03-26T06:00:00.135Z, 845
2023-03-26T06:02:00.053Z, 942
2023-03-26T06:04:00.155Z, 1045
2023-03-26T06:06:00.130Z, 1178
2023-03-26T06:08:00.076Z, 1358
2023-03-26T06:10:00.103Z, 1563
2023-03-26T06:12:00.071Z, 1873
2023-03-26T06:14:00.053Z, 2346
2023-03-26T06:16:00.100Z, 2793
2023-03-26T06:18:00.134Z, 2927
2023-03-26T06:20:00.047Z, 2795
2023-03-26T06:22:00.043Z, 2826
2023-03-26T06:24:00.094Z, 2762
2023-03-26T06:26:00.125Z, 2613
2023-03-26T06:28:00.104Z, 2458
2023-03-26T06:30:00.172Z, 2435
2023-03-26T06:32:12.381Z, 2491
2023-03-26T06:34:00.121Z, 2561
2023-03-26T06:36:00.173Z, 2633
2023-03-26T06:38:00.141Z, 2640
2023-03-26T06:40:00.152Z, 2635
2023-03-26T06:42:00.130Z, 2641
2023-03-26T06:44:00.116Z, 2630
2023-03-26T06:46:00.110Z, 2620
2023-03-26T06:48:00.148Z, 2616
2023-03-26T06:50:00.141Z, 3356
2023-03-26T06:52:00.106Z, 3908
2023-03-26T06:54:00.110Z, 4182
2023-03-26T06:56:00.113Z, 4150
2023-03-26T06:58:00.103Z, 4060
2023-03-26T07:00:00.112Z, 4090
2023-03-26T07:02:00.079Z, 4340
2023-03-26T07:04:00.310Z, 4430
2023-03-26T07:06:00.110Z, 4083
2023-03-26T07:08:00.071Z, 3756
2023-03-26T07:10:00.127Z, 3842
2023-03-26T07:12:00.102Z, 4004
2023-03-26T07:14:00.060Z, 3967
2023-03-26T07:16:00.123Z, 3970
2023-03-26T07:18:00.150Z, 3811
2023-03-26T07:20:00.058Z, 3528
2023-03-26T07:22:00.060Z, 3289
2023-03-26T07:24:00.104Z, 3043
2023-03-26T07:26:00.069Z, 3029
2023-03-26T07:28:00.049Z, 3506
2023-03-26T07:30:00.051Z, 3994
2023-03-26T07:32:00.100Z, 4452
2023-03-26T07:34:00.044Z, 4796
2023-03-26T07:36:00.064Z, 4688
2023-03-26T07:38:00.013Z, 4595
2023-03-26T07:40:00.023Z, 4741
2023-03-26T07:42:00.051Z, 4695
2023-03-26T07:44:00.025Z, 4703
2023-03-26T07:46:00.060Z, 4990
2023-03-26T07:48:00.074Z, 5053
2023-03-26T07:50:00.039Z, 4596
2023-03-26T07:52:00.000Z, 3972
2023-03-26T07:54:00.108Z, 3667
2023-03-26T07:56:00.177Z, 3820
2023-03-26T07:58:00.130Z, 4143
2023-03-26T08:00:00.183Z, 4346
2023-03-26T08:02:00.116Z, 4690
2023-03-26T08:04:00.389Z, 4844
2023-03-26T08:06:00.135Z, 4844
2023-03-26T08:08:00.102Z, 4844
2023-03-26T08:10:00.123Z, 4844
2023-03-26T08:12:00.118Z, 4844
2023-03-26T08:14:00.123Z, 4844
2023-03-26T08:16:00.217Z, 4844
2023-03-26T08:18:00.198Z, 4844
2023-03-26T08:20:00.131Z, 4844
2023-03-26T08:22:00.123Z, 4844
2023-03-26T08:24:00.206Z, 4844
2023-03-26T08:26:00.092Z, 4844
2023-03-26T08:28:00.061Z, 4844
2023-03-26T08:30:00.070Z, 4844
2023-03-26T08:32:00.053Z, 4844
2023-03-26T08:34:00.062Z, 4844
2023-03-26T08:36:00.121Z, 4844
2023-03-26T08:38:00.045Z, 4844
2023-03-26T08:40:00.075Z, 4844
2023-03-26T08:42:00.045Z, 4844
2023-03-26T08:44:00.057Z, 4844
2023-03-26T08:46:00.032Z, 6825
2023-03-26T08:48:00.113Z, 7378
2023-03-26T08:50:00.049Z, 6760
2023-03-26T08:52:00.059Z, 6052
2023-03-26T08:54:00.019Z, 6462
2023-03-26T08:56:00.125Z, 6082
2023-03-26T08:58:00.144Z, 6091
2023-03-26T09:00:02.421Z, 6601
2023-03-26T09:02:00.206Z, 6525
2023-03-26T09:04:00.173Z, 6160
2023-03-26T09:06:00.169Z, 6240
2023-03-26T09:08:00.186Z, 7120
2023-03-26T09:10:00.146Z, 7270
2023-03-26T09:12:00.130Z, 7270
2023-03-26T09:14:00.119Z, 7270
2023-03-26T09:16:00.149Z, 7270
2023-03-26T09:18:00.262Z, 7270
2023-03-26T09:20:00.231Z, 7270
2023-03-26T09:22:00.184Z, 7270
2023-03-26T09:24:00.284Z, 7270
2023-03-26T09:26:00.110Z, 5435
2023-03-26T09:28:00.097Z, 5435
2023-03-26T09:30:00.155Z, 5435
2023-03-26T09:32:00.054Z, 5435
2023-03-26T09:34:00.285Z, 5435
2023-03-26T09:36:00.152Z, 15205
2023-03-26T09:38:00.041Z, 15060
2023-03-26T09:40:00.107Z, 15060
2023-03-26T09:42:00.044Z, 15060
2023-03-26T09:44:00.041Z, 15060
2023-03-26T09:46:00.150Z, 15060
2023-03-26T09:48:00.165Z, 46985
2023-03-26T09:52:00.044Z, 34677
2023-03-26T09:54:00.017Z, 31116
2023-03-26T09:56:00.107Z, 53907
2023-03-26T09:58:00.163Z, 24857
2023-03-26T10:00:00.160Z, 20308
2023-03-26T10:02:00.126Z, 18504
2023-03-26T10:04:00.136Z, 15640
2023-03-26T10:06:00.117Z, 16773
2023-03-26T10:08:00.108Z, 18195
2023-03-26T10:10:00.127Z, 25970
2023-03-26T10:12:00.146Z, 39556
2023-03-26T10:14:00.101Z, 40250
2023-03-26T10:16:00.144Z, 22770
2023-03-26T10:18:00.224Z, 16367
2023-03-26T10:20:00.134Z, 15432
2023-03-26T10:22:00.136Z, 18874
2023-03-26T10:24:00.125Z, 21454
2023-03-26T10:26:00.090Z, 26218
2023-03-26T10:28:00.132Z, 20764
2023-03-26T10:30:00.125Z, 18285
2023-03-26T10:32:00.085Z, 15684
2023-03-26T10:34:00.094Z, 14462
2023-03-26T10:36:00.119Z, 13987
2023-03-26T10:38:00.046Z, 19421
2023-03-26T10:40:00.077Z, 12364
2023-03-26T10:42:00.091Z, 8883
2023-03-26T10:44:07.909Z, 6809
2023-03-26T10:46:00.056Z, 6527
2023-03-26T10:48:00.153Z, 5923
2023-03-26T10:50:00.041Z, 6559
2023-03-26T10:52:00.042Z, 8714
2023-03-26T10:54:00.030Z, 12059
2023-03-26T10:56:00.111Z, 21302
2023-03-26T10:58:00.113Z, 24348
2023-03-26T11:00:00.166Z, 24845
2023-03-26T11:02:00.395Z, 25303
2023-03-26T11:04:00.115Z, 30825
2023-03-26T11:06:00.195Z, 54602
2023-03-26T11:08:00.113Z, 40613
2023-03-26T11:10:00.165Z, 32358
2023-03-26T11:12:00.153Z, 28546
2023-03-26T11:14:00.130Z, 23994
2023-03-26T11:16:00.173Z, 25844
2023-03-26T11:18:00.182Z, 27073
2023-03-26T11:20:00.131Z, 26822
2023-03-26T11:22:00.142Z, 26815
2023-03-26T11:24:04.657Z, 25545
2023-03-26T11:26:00.074Z, 24517
2023-03-26T11:28:00.080Z, 24822
2023-03-26T11:30:00.124Z, 32579
2023-03-26T11:32:00.051Z, 22413
2023-03-26T11:34:00.064Z, 14657
2023-03-26T11:36:00.097Z, 14962
2023-03-26T11:38:00.045Z, 13866
2023-03-26T11:40:00.063Z, 15426
2023-03-26T11:42:00.072Z, 17189
2023-03-26T11:44:00.060Z, 17697
2023-03-26T11:46:00.191Z, 14504
2023-03-26T11:48:00.146Z, 14408
2023-03-26T11:50:00.088Z, 11664
2023-03-26T11:52:00.039Z, 16501
2023-03-26T11:54:00.035Z, 16953
2023-03-26T11:56:00.127Z, 16547
2023-03-26T11:58:00.114Z, 22305
2023-03-26T12:00:00.118Z, 23498
2023-03-26T12:02:00.227Z, 23281
2023-03-26T12:04:00.164Z, 19789
2023-03-26T12:06:00.110Z, 18044
2023-03-26T12:08:00.149Z, 17091
2023-03-26T12:10:18.715Z, 14030
2023-03-26T12:12:00.119Z, 12824
2023-03-26T12:14:00.112Z, 9936
2023-03-26T12:16:00.128Z, 8315
2023-03-26T12:18:00.203Z, 6184
2023-03-26T12:20:00.145Z, 9194
2023-03-26T12:22:00.117Z, 13447
2023-03-26T12:24:00.138Z, 18368
2023-03-26T12:26:00.056Z, 13303
2023-03-26T12:28:00.070Z, 20035
2023-03-26T12:30:00.179Z, 14101
2023-03-26T12:32:00.062Z, 9808
2023-03-26T12:34:00.053Z, 9331
2023-03-26T12:36:00.158Z, 8260
2023-03-26T12:38:00.030Z, 8180
2023-03-26T12:40:08.795Z, 7625
2023-03-26T12:44:46.458Z, 8225
2023-03-26T12:44:53.521Z, 9504
2023-03-26T12:47:54.578Z, 17150
2023-03-26T12:48:04.323Z, 16768
2023-03-26T12:50:00.032Z, 21553
2023-03-26T12:52:00.022Z, 23626
2023-03-26T12:54:00.049Z, 27660
2023-03-26T12:56:00.100Z, 33955
2023-03-26T12:58:00.141Z, 23186
2023-03-26T13:00:00.193Z, 24136
2023-03-26T13:02:00.212Z, 23946
2023-03-26T13:04:00.123Z, 22538
2023-03-26T13:06:00.114Z, 22339
2023-03-26T13:08:00.114Z, 22585
2023-03-26T13:10:00.232Z, 26270
2023-03-26T13:12:00.120Z, 37384
2023-03-26T13:14:00.104Z, 28800
2023-03-26T13:16:00.129Z, 28166
2023-03-26T13:18:00.221Z, 23375
2023-03-26T13:20:00.201Z, 20987
2023-03-26T13:22:00.146Z, 24456
2023-03-26T13:24:00.127Z, 28424
2023-03-26T13:26:00.081Z, 27729
2023-03-26T13:28:00.110Z, 31367
2023-03-26T13:30:00.167Z, 29200
2023-03-26T13:32:00.050Z, 24586
2023-03-26T13:34:00.087Z, 28904
2023-03-26T13:36:14.219Z, 22951
2023-03-26T13:38:00.061Z, 16290
2023-03-26T13:40:00.081Z, 14431
2023-03-26T13:42:00.104Z, 18385
2023-03-26T13:44:00.043Z, 13665
2023-03-26T13:46:00.073Z, 8702
2023-03-26T13:48:00.066Z, 13121
2023-03-26T13:50:00.080Z, 20975
2023-03-26T13:52:00.043Z, 23655
2023-03-26T13:54:00.040Z, 34533
2023-03-26T13:56:00.136Z, 29969
2023-03-26T13:58:00.150Z, 33476
2023-03-26T14:00:00.152Z, 32417
2023-03-26T14:02:00.243Z, 31841
2023-03-26T14:04:00.202Z, 34320
2023-03-26T14:06:00.136Z, 32529
2023-03-26T14:08:00.103Z, 37047
2023-03-26T14:10:00.140Z, 30230
2023-03-26T14:12:00.112Z, 21828
2023-03-26T14:14:00.134Z, 14827
2023-03-26T14:16:00.172Z, 9673
2023-03-26T14:18:00.236Z, 5425
2023-03-26T14:20:00.143Z, 4942
2023-03-26T14:22:00.135Z, 4744
2023-03-26T14:24:00.141Z, 4106
2023-03-26T14:26:00.078Z, 5540
2023-03-26T14:28:00.084Z, 11410
2023-03-26T14:30:00.079Z, 18547
2023-03-26T14:32:00.050Z, 20226
2023-03-26T14:34:00.084Z, 28423
2023-03-26T14:36:00.128Z, 22279
2023-03-26T14:38:00.049Z, 14935
2023-03-26T14:40:00.027Z, 8524
2023-03-26T14:42:00.045Z, 4816
2023-03-26T14:44:00.042Z, 4192
2023-03-26T14:46:00.046Z, 3634
2023-03-26T14:48:00.248Z, 4059
2023-03-26T14:50:00.028Z, 3016
2023-03-26T14:52:00.028Z, 2153
2023-03-26T14:54:00.042Z, 1785
2023-03-26T14:56:00.107Z, 1401
2023-03-26T14:58:00.172Z, 1235
2023-03-26T15:00:00.141Z, 1056
2023-03-26T15:02:00.156Z, 725
2023-03-26T15:04:00.119Z, 685
2023-03-26T15:06:00.111Z, 650
2023-03-26T15:08:00.132Z, 712
2023-03-26T15:10:00.146Z, 752
2023-03-26T15:12:13.213Z, 950
2023-03-26T15:14:00.162Z, 1062
2023-03-26T15:16:00.178Z, 1010
2023-03-26T15:18:00.198Z, 1050
2023-03-26T15:20:00.142Z, 1387
2023-03-26T15:22:00.113Z, 1872
2023-03-26T15:24:00.120Z, 2656
2023-03-26T15:26:00.066Z, 3429
2023-03-26T15:28:00.066Z, 4055
2023-03-26T15:30:00.128Z, 4316
2023-03-26T15:32:00.195Z, 4510
2023-03-26T15:34:00.055Z, 4570
2023-03-26T15:36:00.082Z, 4808
2023-03-26T15:38:00.036Z, 4857
2023-03-26T15:40:00.509Z, 4720
2023-03-26T15:42:00.048Z, 5109
2023-03-26T15:46:00.064Z, 6720
2023-03-26T15:48:00.101Z, 7384
2023-03-26T15:50:00.039Z, 8236
2023-03-26T15:52:00.021Z, 8809
2023-03-26T15:54:00.036Z, 9180
2023-03-26T15:56:00.116Z, 9897
2023-03-26T15:58:00.110Z, 9799
2023-03-26T16:00:00.142Z, 8523
2023-03-26T16:02:00.125Z, 6250
2023-03-26T16:04:00.123Z, 4333
2023-03-26T16:06:00.107Z, 3864
2023-03-26T16:08:00.140Z, 4293
2023-03-26T16:10:00.148Z, 5360
2023-03-26T16:12:00.135Z, 5994
2023-03-26T16:14:00.126Z, 5292
2023-03-26T16:16:00.178Z, 5005
2023-03-26T16:18:00.189Z, 3893
2023-03-26T16:20:00.103Z, 3187
2023-03-26T16:22:00.125Z, 3040
2023-03-26T16:24:00.135Z, 2900
2023-03-26T16:26:00.104Z, 2696
2023-03-26T16:28:00.108Z, 3209
2023-03-26T16:30:00.111Z, 4170
2023-03-26T16:32:00.134Z, 4254
2023-03-26T16:34:00.108Z, 4124
2023-03-26T16:36:00.063Z, 3686
2023-03-26T16:38:00.059Z, 3284
2023-03-26T16:40:00.041Z, 3070
2023-03-26T16:42:06.549Z, 2915
2023-03-26T16:44:00.044Z, 2826
2023-03-26T16:46:00.069Z, 2594
2023-03-26T16:48:00.130Z, 2251
2023-03-26T16:50:08.984Z, 1991
2023-03-26T16:52:00.035Z, 1894
2023-03-26T16:54:00.032Z, 1635
2023-03-26T16:56:00.122Z, 1399
2023-03-26T16:58:00.126Z, 1175
2023-03-26T17:00:06.049Z, 762
2023-03-26T17:02:00.226Z, 557
2023-03-26T17:04:00.151Z, 527
2023-03-26T17:06:00.119Z, 449
2023-03-26T17:08:00.105Z, 580
2023-03-26T17:10:00.158Z, 605
2023-03-26T17:12:00.147Z, 625
2023-03-26T17:14:00.151Z, 578
2023-03-26T17:16:00.115Z, 468
2023-03-26T17:18:00.232Z, 377
2023-03-26T17:20:00.146Z, 364
2023-03-26T17:22:00.131Z, 329
2023-03-26T17:24:00.150Z, 312
2023-03-26T17:26:00.064Z, 331
2023-03-26T17:28:00.048Z, 358
2023-03-26T17:30:00.074Z, 349
2023-03-26T17:32:00.079Z, 320
2023-03-26T17:34:00.145Z, 281
2023-03-26T17:36:00.259Z, 253
2023-03-26T17:38:00.045Z, 226
2023-03-26T17:40:00.048Z, 208
2023-03-26T17:42:00.051Z, 196
2023-03-26T17:44:00.044Z, 189
2023-03-26T17:46:03.301Z, 172
2023-03-26T17:48:00.130Z, 143
2023-03-26T17:50:00.052Z, 122
2023-03-26T17:52:00.044Z, 106
2023-03-26T17:54:00.047Z, 85
2023-03-26T17:56:00.103Z, 64
2023-03-26T17:58:00.150Z, 45
2023-03-26T18:00:00.206Z, 31
2023-03-26T18:02:00.154Z, 23
2023-03-26T18:04:00.159Z, 16
2023-03-26T18:06:00.106Z, 12
2023-03-26T18:08:00.154Z, 8
2023-03-26T18:10:00.118Z, 5
2023-03-26T18:12:00.118Z, 3
2023-03-26T18:14:00.120Z, 1
2023-03-26T18:16:00.182Z, 0
2023-03-26T18:18:00.224Z, 0
2023-03-26T18:20:00.127Z, 0
2023-03-26T18:22:00.126Z, 0
2023-03-26T18:24:00.536Z, 0
2023-03-26T18:26:00.099Z, 0
2023-03-26T18:28:00.050Z, 0
2023-03-26T18:30:02.714Z, 0
2023-03-26T18:32:00.205Z, 0
2023-03-26T18:34:00.089Z, 0
2023-03-26T18:36:00.185Z, 0
2023-03-26T18:38:00.039Z, 0
2023-03-26T18:40:00.053Z, 0
2023-03-26T18:42:00.055Z, 0
2023-03-26T18:44:00.044Z, 0
2023-03-26T18:46:00.050Z, 0
2023-03-26T18:48:00.229Z, 0
2023-03-26T18:50:00.045Z, 0
2023-03-26T18:52:00.042Z, 0
2023-03-26T18:54:00.070Z, 0
2023-03-26T18:56:00.099Z, 0
2023-03-26T18:58:00.108Z, 0
2023-03-26T19:00:00.165Z, 0
2023-03-26T19:02:00.226Z, 0
2023-03-26T19:04:00.108Z, 0
2023-03-26T19:06:00.114Z, 0
2023-03-26T19:08:00.098Z, 0
2023-03-26T19:10:00.162Z, 0
2023-03-26T19:12:00.121Z, 0
2023-03-26T19:14:00.122Z, 0
2023-03-26T19:16:00.121Z, 0
2023-03-26T19:18:00.289Z, 0
2023-03-26T19:20:00.162Z, 0
2023-03-26T19:22:00.111Z, 0
2023-03-26T19:24:00.142Z, 0
2023-03-26T19:26:00.121Z, 0
2023-03-26T19:28:00.121Z, 0
2023-03-26T19:30:00.078Z, 0
2023-03-26T19:32:00.037Z, 0
2023-03-26T19:34:00.062Z, 0
2023-03-26T19:36:00.112Z, 0
2023-03-26T19:38:00.033Z, 0
2023-03-26T19:40:00.030Z, 0
2023-03-26T19:42:00.089Z, 0
2023-03-26T19:44:00.096Z, 0
2023-03-26T19:46:01.238Z, 0
2023-03-26T19:48:12.201Z, 0
2023-03-26T19:50:00.079Z, 0
2023-03-26T19:52:00.062Z, 0
2023-03-26T19:54:00.108Z, 0
2023-03-26T19:56:00.113Z, 0
2023-03-26T19:58:00.111Z, 0
2023-03-26T20:00:00.244Z, 0
2023-03-26T20:02:00.184Z, 0
2023-03-26T20:04:00.252Z, 0
2023-03-26T20:06:00.134Z, 0
2023-03-26T20:08:00.120Z, 0
2023-03-26T20:10:01.136Z, 0
2023-03-26T20:12:00.116Z, 0
2023-03-26T20:14:00.113Z, 0
2023-03-26T20:16:05.525Z, 0
2023-03-26T20:18:00.161Z, 0
2023-03-26T20:20:00.109Z, 0
2023-03-26T20:22:00.110Z, 0
2023-03-26T20:24:00.143Z, 0
2023-03-26T20:26:00.096Z, 0
2023-03-26T20:28:00.088Z, 0
2023-03-26T20:30:00.111Z, 0
2023-03-26T20:32:00.037Z, 0
2023-03-26T20:34:00.119Z, 0
2023-03-26T20:36:00.537Z, 0
2023-03-26T20:38:00.042Z, 0
2023-03-26T20:40:00.049Z, 0
2023-03-26T20:42:00.055Z, 0
2023-03-26T20:44:00.051Z, 0
2023-03-26T20:46:00.074Z, 0
2023-03-26T20:48:00.081Z, 0
2023-03-26T20:50:00.060Z, 0
2023-03-26T20:52:00.073Z, 0
2023-03-26T20:54:00.084Z, 0
2023-03-26T20:56:00.103Z, 0
2023-03-26T20:58:00.092Z, 0
2023-03-26T21:00:00.144Z, 0
2023-03-26T21:02:00.130Z, 0
2023-03-26T21:04:00.099Z, 0
2023-03-26T21:06:00.162Z, 0
2023-03-26T21:08:00.104Z, 0
2023-03-26T21:10:00.099Z, 0
2023-03-26T21:12:00.143Z, 0
2023-03-26T21:14:00.132Z, 0
2023-03-26T21:16:00.997Z, 0
2023-03-26T21:18:00.118Z, 0
2023-03-26T21:20:00.171Z, 0
2023-03-26T21:22:00.132Z, 0
2023-03-26T21:24:00.133Z, 0
2023-03-26T21:26:00.085Z, 0
2023-03-26T21:28:00.078Z, 0
2023-03-26T21:30:00.123Z, 0
2023-03-26T21:32:00.132Z, 0
2023-03-26T21:34:00.100Z, 0
2023-03-26T21:36:00.194Z, 0
2023-03-26T21:38:00.047Z, 0
2023-03-26T21:40:00.075Z, 0
2023-03-26T21:42:05.003Z, 0
2023-03-26T21:44:00.050Z, 0
2023-03-26T21:46:00.072Z, 0
2023-03-26T21:48:00.132Z, 0
2023-03-26T21:50:00.048Z, 0
2023-03-26T21:52:00.042Z, 0
2023-03-26T21:54:00.036Z, 0
2023-03-26T21:56:00.094Z, 0
2023-03-26T21:58:00.111Z, 0
2023-03-26T22:00:00.177Z, 0
2023-03-26T22:02:00.159Z, 0
2023-03-26T22:04:00.233Z, 0
2023-03-26T22:06:00.142Z, 0
2023-03-26T22:08:00.103Z, 0
2023-03-26T22:10:00.140Z, 0
2023-03-26T22:12:00.116Z, 0
2023-03-26T22:14:00.120Z, 0
2023-03-26T22:16:00.167Z, 0
2023-03-26T22:18:00.157Z, 0
2023-03-26T22:20:00.120Z, 0
2023-03-26T22:22:00.292Z, 0
2023-03-26T22:24:00.127Z, 0
2023-03-26T22:26:00.108Z, 0
2023-03-26T22:28:00.092Z, 0
2023-03-26T22:30:00.055Z, 0
2023-03-26T22:32:00.093Z, 0
2023-03-26T22:34:00.150Z, 0
2023-03-26T22:36:00.098Z, 0
2023-03-26T22:38:00.871Z, 0
2023-03-26T22:40:00.056Z, 0
2023-03-26T22:42:00.052Z, 0
2023-03-26T22:44:09.343Z, 0
2023-03-26T22:46:00.136Z, 0
2023-03-26T22:48:03.989Z, 0
2023-03-26T22:50:00.057Z, 0
2023-03-26T22:52:00.040Z, 0
2023-03-26T22:54:00.048Z, 0
2023-03-26T22:56:00.098Z, 0
2023-03-26T22:58:00.137Z, 0
2023-03-26T23:00:00.146Z, 0
2023-03-26T23:02:00.190Z, 0
2023-03-26T23:04:00.167Z, 0
2023-03-26T23:06:00.122Z, 0
2023-03-26T23:08:00.112Z, 0
2023-03-26T23:10:00.158Z, 0
2023-03-26T23:12:00.142Z, 0
2023-03-26T23:14:00.109Z, 0
2023-03-26T23:16:00.188Z, 0
2023-03-26T23:18:00.326Z, 0
2023-03-26T23:20:00.149Z, 0
2023-03-26T23:22:00.121Z, 0
2023-03-26T23:24:00.117Z, 0
2023-03-26T23:26:00.085Z, 0
2023-03-26T23:28:00.088Z, 0
2023-03-26T23:30:00.085Z, 0
2023-03-26T23:32:00.086Z, 0
2023-03-26T23:34:00.097Z, 0
2023-03-26T23:36:00.200Z, 0
2023-03-26T23:38:00.046Z, 0
2023-03-26T23:40:00.042Z, 0
2023-03-26T23:42:00.055Z, 0
2023-03-26T23:44:00.053Z, 0
2023-03-26T23:46:00.162Z, 0
2023-03-26T23:48:00.096Z, 0
2023-03-26T23:50:00.046Z, 0
2023-03-26T23:52:00.036Z, 0
2023-03-26T23:54:00.038Z, 0
2023-03-26T23:56:00.118Z, 0
2023-03-26T23:58:00.115Z, 0
